sensor_id;sensor_type;location;lat;lon;timestamp;pressure;altitude;pressure_sealevel;temperature;humidity
72055;BME280;59936;51.490;5.436;2022-08-21T00:00:08;101471.69;;;13.88;100.00
72055;BME280;59936;51.490;5.436;2022-08-21T00:00:21;101475.25;;;13.87;100.00
72055;BME280;59936;51.490;5.436;2022-08-21T00:00:29;101470.00;;;13.87;100.00
72055;BME280;59936;51.490;5.436;2022-08-21T00:00:37;101467.38;;;13.87;100.00
72055;BME280;59936;51.490;5.436;2022-08-21T00:00:43;101474.38;;;13.86;100.00
72055;BME280;59936;51.490;5.436;2022-08-21T00:00:49;101470.06;;;13.85;100.00
72055;BME280;59936;51.490;5.436;2022-08-21T00:00:54;101471.75;;;13.86;100.00
72055;BME280;59936;51.490;5.436;2022-08-21T00:01:03;101470.06;;;13.85;100.00
72055;BME280;59936;51.490;5.436;2022-08-21T00:01:14;101473.56;;;13.86;100.00
72055;BME280;59936;51.490;5.436;2022-08-21T00:01:26;101466.59;;;13.85;100.00
72055;BME280;59936;51.490;5.436;2022-08-21T00:01:33;101471.00;;;13.84;100.00
72055;BME280;59936;51.490;5.436;2022-08-21T00:01:39;101468.38;;;13.84;100.00
72055;BME280;59936;51.490;5.436;2022-08-21T00:01:45;101471.84;;;13.85;100.00
72055;BME280;59936;51.490;5.436;2022-08-21T00:01:50;101476.25;;;13.84;100.00
72055;BME280;59936;51.490;5.436;2022-08-21T00:01:56;101472.69;;;13.85;100.00
72055;BME280;59936;51.490;5.436;2022-08-21T00:02:02;101469.22;;;13.85;100.00
72055;BME280;59936;51.490;5.436;2022-08-21T00:02:27;101472.69;;;13.85;100.00
72055;BME280;59936;51.490;5.436;2022-08-21T00:02:33;101465.75;;;13.84;100.00
72055;BME280;59936;51.490;5.436;2022-08-21T00:02:48;101471.00;;;13.84;100.00
72055;BME280;59936;51.490;5.436;2022-08-21T00:03:14;101468.31;;;13.86;100.00
72055;BME280;59936;51.490;5.436;2022-08-21T00:03:20;101470.06;;;13.85;100.00
72055;BME280;59936;51.490;5.436;2022-08-21T00:03:25;101478.88;;;13.84;100.00
72055;BME280;59936;51.490;5.436;2022-08-21T00:03:31;101472.69;;;13.85;100.00
72055;BME280;59936;51.490;5.436;2022-08-21T00:03:37;101468.38;;;13.84;100.00
72055;BME280;59936;51.490;5.436;2022-08-21T00:03:43;101472.69;;;13.85;100.00
72055;BME280;59936;51.490;5.436;2022-08-21T00:03:49;101468.38;;;13.84;100.00
72055;BME280;59936;51.490;5.436;2022-08-21T00:03:55;101466.59;;;13.85;100.00
72055;BME280;59936;51.490;5.436;2022-08-21T00:04:05;101477.94;;;13.85;100.00
72055;BME280;59936;51.490;5.436;2022-08-21T00:04:12;101466.59;;;13.85;100.00
72055;BME280;59936;51.490;5.436;2022-08-21T00:04:18;101471.00;;;13.84;100.00
72055;BME280;59936;51.490;5.436;2022-08-21T00:04:24;101472.69;;;13.85;100.00
72055;BME280;59936;51.490;5.436;2022-08-21T00:04:30;101467.50;;;13.84;100.00
72055;BME280;59936;51.490;5.436;2022-08-21T00:04:35;101471.00;;;13.84;100.00
72055;BME280;59936;51.490;5.436;2022-08-21T00:04:41;101471.00;;;13.84;100.00
72055;BME280;59936;51.490;5.436;2022-08-21T00:04:47;101470.94;;;13.86;100.00
72055;BME280;59936;51.490;5.436;2022-08-21T00:04:53;101465.75;;;13.84;100.00
72055;BME280;59936;51.490;5.436;2022-08-21T00:04:59;101464.06;;;13.83;100.00
72055;BME280;59936;51.490;5.436;2022-08-21T00:05:05;101466.69;;;13.83;100.00
72055;BME280;59936;51.490;5.436;2022-08-21T00:05:10;101464.97;;;13.82;100.00
72055;BME280;59936;51.490;5.436;2022-08-21T00:05:16;101472.84;;;13.82;100.00
72055;BME280;59936;51.490;5.436;2022-08-21T00:05:22;101470.22;;;13.82;100.00
72055;BME280;59936;51.490;5.436;2022-08-21T00:05:31;101470.13;;;13.84;100.00
72055;BME280;59936;51.490;5.436;2022-08-21T00:05:41;101473.69;;;13.83;100.00
72055;BME280;59936;51.490;5.436;2022-08-21T00:05:49;101472.00;;;13.82;100.00
72055;BME280;59936;51.490;5.436;2022-08-21T00:05:55;101465.88;;;13.81;100.00
72055;BME280;59936;51.490;5.436;2022-08-21T00:06:01;101468.50;;;13.81;100.00
72055;BME280;59936;51.490;5.436;2022-08-21T00:06:07;101473.75;;;13.81;100.00
72055;BME280;59936;51.490;5.436;2022-08-21T00:06:13;101471.13;;;13.81;100.00
72055;BME280;59936;51.490;5.436;2022-08-21T00:06:19;101463.25;;;13.81;100.00
72055;BME280;59936;51.490;5.436;2022-08-21T00:06:24;101472.06;;;13.80;100.00
72055;BME280;59936;51.490;5.436;2022-08-21T00:06:30;101468.50;;;13.81;100.00
72055;BME280;59936;51.490;5.436;2022-08-21T00:06:36;101465.88;;;13.81;100.00
72055;BME280;59936;51.490;5.436;2022-08-21T00:06:42;101467.59;;;13.82;100.00
72055;BME280;59936;51.490;5.436;2022-08-21T00:06:49;101465.88;;;13.81;100.00
72055;BME280;59936;51.490;5.436;2022-08-21T00:06:56;101463.25;;;13.81;100.00
72055;BME280;59936;51.490;5.436;2022-08-21T00:07:02;101460.66;;;13.81;100.00
72055;BME280;59936;51.490;5.436;2022-08-21T00:07:07;101466.75;;;13.82;100.00
72055;BME280;59936;51.490;5.436;2022-08-21T00:07:13;101466.81;;;13.80;100.00
72055;BME280;59936;51.490;5.436;2022-08-21T00:07:20;101470.28;;;13.81;100.00
72055;BME280;59936;51.490;5.436;2022-08-21T00:07:26;101465.88;;;13.81;100.00
72055;BME280;59936;51.490;5.436;2022-08-21T00:07:31;101470.28;;;13.81;100.00
72055;BME280;59936;51.490;5.436;2022-08-21T00:07:37;101463.25;;;13.81;100.00
72055;BME280;59936;51.490;5.436;2022-08-21T00:07:43;101465.03;;;13.81;100.00
72055;BME280;59936;51.490;5.436;2022-08-21T00:07:48;101471.13;;;13.81;100.00
72055;BME280;59936;51.490;5.436;2022-08-21T00:07:54;101464.19;;;13.80;100.00
72055;BME280;59936;51.490;5.436;2022-08-21T00:08:00;101468.50;;;13.81;100.00
72055;BME280;59936;51.490;5.436;2022-08-21T00:08:06;101469.44;;;13.80;100.00
72055;BME280;59936;51.490;5.436;2022-08-21T00:08:12;101465.09;;;13.79;100.00
72055;BME280;59936;51.490;5.436;2022-08-21T00:08:19;101468.59;;;13.80;100.00
72055;BME280;59936;51.490;5.436;2022-08-21T00:08:25;101469.44;;;13.80;100.00
72055;BME280;59936;51.490;5.436;2022-08-21T00:08:30;101467.72;;;13.79;100.00
72055;BME280;59936;51.490;5.436;2022-08-21T00:08:36;101473.81;;;13.80;100.00
72055;BME280;59936;51.490;5.436;2022-08-21T00:08:42;101467.72;;;13.79;100.00
72055;BME280;59936;51.490;5.436;2022-08-21T00:08:47;101461.56;;;13.80;100.00
72055;BME280;59936;51.490;5.436;2022-08-21T00:08:53;101469.44;;;13.80;100.00
72055;BME280;59936;51.490;5.436;2022-08-21T00:08:58;101470.34;;;13.79;100.00
72055;BME280;59936;51.490;5.436;2022-08-21T00:09:05;101466.81;;;13.80;100.00
72055;BME280;59936;51.490;5.436;2022-08-21T00:09:12;101467.72;;;13.79;100.00
72055;BME280;59936;51.490;5.436;2022-08-21T00:09:19;101472.97;;;13.79;100.00
72055;BME280;59936;51.490;5.436;2022-08-21T00:09:25;101468.59;;;13.80;100.00
72055;BME280;59936;51.490;5.436;2022-08-21T00:09:30;101468.66;;;13.78;100.00
72055;BME280;59936;51.490;5.436;2022-08-21T00:09:36;101470.34;;;13.79;100.00
72055;BME280;59936;51.490;5.436;2022-08-21T00:09:42;101467.72;;;13.79;100.00
72055;BME280;59936;51.490;5.436;2022-08-21T00:09:48;101467.72;;;13.79;100.00
72055;BME280;59936;51.490;5.436;2022-08-21T00:09:54;101462.47;;;13.79;100.00
72055;BME280;59936;51.490;5.436;2022-08-21T00:09:59;101468.59;;;13.80;100.00
72055;BME280;59936;51.490;5.436;2022-08-21T00:10:05;101463.34;;;13.80;100.00
72055;BME280;59936;51.490;5.436;2022-08-21T00:10:11;101469.44;;;13.80;100.00
72055;BME280;59936;51.490;5.436;2022-08-21T00:10:19;101469.44;;;13.80;100.00
72055;BME280;59936;51.490;5.436;2022-08-21T00:10:25;101469.44;;;13.80;100.00
72055;BME280;59936;51.490;5.436;2022-08-21T00:10:31;101464.19;;;13.80;100.00
72055;BME280;59936;51.490;5.436;2022-08-21T00:10:38;101464.19;;;13.80;100.00
72055;BME280;59936;51.490;5.436;2022-08-21T00:10:46;101468.50;;;13.81;100.00
72055;BME280;59936;51.490;5.436;2022-08-21T00:10:52;101465.88;;;13.81;100.00
72055;BME280;59936;51.490;5.436;2022-08-21T00:10:57;101470.22;;;13.82;100.00
72055;BME280;59936;51.490;5.436;2022-08-21T00:11:04;101464.97;;;13.82;100.00
72055;BME280;59936;51.490;5.436;2022-08-21T00:11:11;101464.06;;;13.83;100.00
72055;BME280;59936;51.490;5.436;2022-08-21T00:11:18;101463.19;;;13.83;100.00
72055;BME280;59936;51.490;5.436;2022-08-21T00:11:25;101464.06;;;13.83;100.00
72055;BME280;59936;51.490;5.436;2022-08-21T00:11:33;101469.31;;;13.83;100.00
72055;BME280;59936;51.490;5.436;2022-08-21T00:11:40;101467.50;;;13.84;100.00
72055;BME280;59936;51.490;5.436;2022-08-21T00:11:46;101464.06;;;13.83;100.00
72055;BME280;59936;51.490;5.436;2022-08-21T00:11:52;101469.31;;;13.83;100.00
72055;BME280;59936;51.490;5.436;2022-08-21T00:11:58;101467.59;;;13.82;100.00
72055;BME280;59936;51.490;5.436;2022-08-21T00:12:04;101470.13;;;13.84;100.00
72055;BME280;59936;51.490;5.436;2022-08-21T00:12:10;101464.06;;;13.83;100.00
72055;BME280;59936;51.490;5.436;2022-08-21T00:12:15;101471.00;;;13.84;100.00
72055;BME280;59936;51.490;5.436;2022-08-21T00:12:21;101469.31;;;13.83;100.00
72055;BME280;59936;51.490;5.436;2022-08-21T00:12:27;101464.97;;;13.82;100.00
72055;BME280;59936;51.490;5.436;2022-08-21T00:12:32;101460.66;;;13.81;100.00
72055;BME280;59936;51.490;5.436;2022-08-21T00:12:38;101463.25;;;13.81;100.00
72055;BME280;59936;51.490;5.436;2022-08-21T00:12:45;101464.13;;;13.82;100.00
72055;BME280;59936;51.490;5.436;2022-08-21T00:12:51;101462.34;;;13.82;100.00
72055;BME280;59936;51.490;5.436;2022-08-21T00:12:57;101465.88;;;13.81;100.00
72055;BME280;59936;51.490;5.436;2022-08-21T00:13:04;101455.41;;;13.81;100.00
72055;BME280;59936;51.490;5.436;2022-08-21T00:13:11;101470.28;;;13.81;100.00
72055;BME280;59936;51.490;5.436;2022-08-21T00:13:18;101458.09;;;13.80;100.00
72055;BME280;59936;51.490;5.436;2022-08-21T00:13:24;101469.44;;;13.80;100.00
72055;BME280;59936;51.490;5.436;2022-08-21T00:13:30;101462.47;;;13.79;100.00
72055;BME280;59936;51.490;5.436;2022-08-21T00:13:36;101465.09;;;13.79;100.00
72055;BME280;59936;51.490;5.436;2022-08-21T00:13:42;101463.34;;;13.80;100.00
72055;BME280;59936;51.490;5.436;2022-08-21T00:13:47;101466.03;;;13.78;100.00
72055;BME280;59936;51.490;5.436;2022-08-21T00:13:54;101462.47;;;13.79;100.00
72055;BME280;59936;51.490;5.436;2022-08-21T00:13:59;101460.78;;;13.78;100.00
72055;BME280;59936;51.490;5.436;2022-08-21T00:14:07;101461.66;;;13.78;100.00
72055;BME280;59936;51.490;5.436;2022-08-21T00:14:14;101462.47;;;13.79;100.00
72055;BME280;59936;51.490;5.436;2022-08-21T00:14:20;101466.03;;;13.78;100.00
72055;BME280;59936;51.490;5.436;2022-08-21T00:14:26;101457.22;;;13.79;100.00
72055;BME280;59936;51.490;5.436;2022-08-21T00:14:32;101467.72;;;13.79;100.00
72055;BME280;59936;51.490;5.436;2022-08-21T00:14:38;101461.66;;;13.78;100.00
72055;BME280;59936;51.490;5.436;2022-08-21T00:14:43;101462.47;;;13.79;100.00
72055;BME280;59936;51.490;5.436;2022-08-21T00:14:49;101457.22;;;13.79;100.00
72055;BME280;59936;51.490;5.436;2022-08-21T00:14:55;101466.81;;;13.80;100.00
72055;BME280;59936;51.490;5.436;2022-08-21T00:15:00;101463.34;;;13.80;100.00
72055;BME280;59936;51.490;5.436;2022-08-21T00:15:07;101467.72;;;13.79;100.00
72055;BME280;59936;51.490;5.436;2022-08-21T00:15:18;101469.44;;;13.80;100.00
72055;BME280;59936;51.490;5.436;2022-08-21T00:15:29;101458.94;;;13.80;100.00
72055;BME280;59936;51.490;5.436;2022-08-21T00:15:37;101465.97;;;13.80;100.00
72055;BME280;59936;51.490;5.436;2022-08-21T00:15:43;101465.97;;;13.80;100.00
72055;BME280;59936;51.490;5.436;2022-08-21T00:15:50;101468.59;;;13.80;100.00
72055;BME280;59936;51.490;5.436;2022-08-21T00:15:55;101465.97;;;13.80;100.00
72055;BME280;59936;51.490;5.436;2022-08-21T00:16:02;101462.47;;;13.79;100.00
72055;BME280;59936;51.490;5.436;2022-08-21T00:16:08;101467.72;;;13.79;100.00
72055;BME280;59936;51.490;5.436;2022-08-21T00:16:15;101470.34;;;13.79;100.00
72055;BME280;59936;51.490;5.436;2022-08-21T00:16:21;101468.66;;;13.78;100.00
72055;BME280;59936;51.490;5.436;2022-08-21T00:16:26;101467.72;;;13.79;100.00
72055;BME280;59936;51.490;5.436;2022-08-21T00:16:32;101466.88;;;13.78;100.00
72055;BME280;59936;51.490;5.436;2022-08-21T00:16:38;101463.41;;;13.78;100.00
72055;BME280;59936;51.490;5.436;2022-08-21T00:16:43;101465.09;;;13.79;100.00
72055;BME280;59936;51.490;5.436;2022-08-21T00:16:49;101466.81;;;13.80;100.00
72055;BME280;59936;51.490;5.436;2022-08-21T00:16:54;101464.19;;;13.80;100.00
72055;BME280;59936;51.490;5.436;2022-08-21T00:17:01;101469.44;;;13.80;100.00
72055;BME280;59936;51.490;5.436;2022-08-21T00:17:08;101463.34;;;13.80;100.00
72055;BME280;59936;51.490;5.436;2022-08-21T00:17:13;101468.59;;;13.80;100.00
72055;BME280;59936;51.490;5.436;2022-08-21T00:17:18;101467.72;;;13.79;100.00
72055;BME280;59936;51.490;5.436;2022-08-21T00:17:24;101464.19;;;13.80;100.00
72055;BME280;59936;51.490;5.436;2022-08-21T00:17:29;101465.09;;;13.79;100.00
72055;BME280;59936;51.490;5.436;2022-08-21T00:17:35;101462.41;;;13.81;100.00
72055;BME280;59936;51.490;5.436;2022-08-21T00:17:41;101464.19;;;13.80;100.00
72055;BME280;59936;51.490;5.436;2022-08-21T00:17:47;101469.44;;;13.80;100.00
72055;BME280;59936;51.490;5.436;2022-08-21T00:17:53;101469.44;;;13.80;100.00
72055;BME280;59936;51.490;5.436;2022-08-21T00:17:59;101464.19;;;13.80;100.00
72055;BME280;59936;51.490;5.436;2022-08-21T00:18:07;101460.72;;;13.80;100.00
72055;BME280;59936;51.490;5.436;2022-08-21T00:18:16;101467.66;;;13.81;100.00
72055;BME280;59936;51.490;5.436;2022-08-21T00:18:24;101463.34;;;13.80;100.00
72055;BME280;59936;51.490;5.436;2022-08-21T00:18:30;101464.19;;;13.80;100.00
72055;BME280;59936;51.490;5.436;2022-08-21T00:18:37;101469.44;;;13.80;100.00
72055;BME280;59936;51.490;5.436;2022-08-21T00:18:42;101468.50;;;13.81;100.00
72055;BME280;59936;51.490;5.436;2022-08-21T00:18:48;101464.19;;;13.80;100.00
72055;BME280;59936;51.490;5.436;2022-08-21T00:18:54;101461.56;;;13.80;100.00
72055;BME280;59936;51.490;5.436;2022-08-21T00:18:59;101462.47;;;13.79;100.00
72055;BME280;59936;51.490;5.436;2022-08-21T00:19:06;101463.34;;;13.80;100.00
72055;BME280;59936;51.490;5.436;2022-08-21T00:19:11;101468.59;;;13.80;100.00
72055;BME280;59936;51.490;5.436;2022-08-21T00:19:17;101460.78;;;13.78;100.00
72055;BME280;59936;51.490;5.436;2022-08-21T00:19:22;101461.66;;;13.78;100.00
72055;BME280;59936;51.490;5.436;2022-08-21T00:19:30;101455.53;;;13.78;100.00
72055;BME280;59936;51.490;5.436;2022-08-21T00:19:36;101466.88;;;13.78;100.00
72055;BME280;59936;51.490;5.436;2022-08-21T00:19:42;101460.78;;;13.78;100.00
72055;BME280;59936;51.490;5.436;2022-08-21T00:19:47;101459.94;;;13.77;100.00
72055;BME280;59936;51.490;5.436;2022-08-21T00:19:52;101463.47;;;13.76;100.00
72055;BME280;59936;51.490;5.436;2022-08-21T00:19:58;101456.47;;;13.77;100.00
72055;BME280;59936;51.490;5.436;2022-08-21T00:20:05;101460.84;;;13.76;100.00
72055;BME280;59936;51.490;5.436;2022-08-21T00:20:15;101463.47;;;13.76;100.00
72055;BME280;59936;51.490;5.436;2022-08-21T00:20:22;101465.25;;;13.76;100.00
72055;BME280;59936;51.490;5.436;2022-08-21T00:20:28;101455.59;;;13.76;100.00
72055;BME280;59936;51.490;5.436;2022-08-21T00:20:34;101455.66;;;13.75;100.00
72055;BME280;59936;51.490;5.436;2022-08-21T00:20:42;101460.09;;;13.74;100.00
72055;BME280;59936;51.490;5.436;2022-08-21T00:20:48;101459.22;;;13.74;100.00
72055;BME280;59936;51.490;5.436;2022-08-21T00:20:54;101455.75;;;13.73;100.00
72055;BME280;59936;51.490;5.436;2022-08-21T00:20:59;101454.91;;;13.73;100.00
72055;BME280;59936;51.490;5.436;2022-08-21T00:21:05;101453.97;;;13.74;100.00
72055;BME280;59936;51.490;5.436;2022-08-21T00:21:14;101463.63;;;13.73;100.00
72055;BME280;59936;51.490;5.436;2022-08-21T00:21:20;101457.53;;;13.73;100.00
72055;BME280;59936;51.490;5.436;2022-08-21T00:21:27;101457.53;;;13.73;100.00
72055;BME280;59936;51.490;5.436;2022-08-21T00:21:33;101457.53;;;13.73;100.00
72055;BME280;59936;51.490;5.436;2022-08-21T00:21:39;101457.53;;;13.73;100.00
72055;BME280;59936;51.490;5.436;2022-08-21T00:21:45;101461.91;;;13.72;100.00
72055;BME280;59936;51.490;5.436;2022-08-21T00:21:52;101461.06;;;13.72;100.00
72055;BME280;59936;51.490;5.436;2022-08-21T00:21:58;101461.91;;;13.72;100.00
72055;BME280;59936;51.490;5.436;2022-08-21T00:22:04;101457.59;;;13.71;100.00
72055;BME280;59936;51.490;5.436;2022-08-21T00:22:09;101457.59;;;13.71;100.00
72055;BME280;59936;51.490;5.436;2022-08-21T00:22:15;101452.34;;;13.71;100.00
72055;BME280;59936;51.490;5.436;2022-08-21T00:22:20;101459.34;;;13.71;100.00
72055;BME280;59936;51.490;5.436;2022-08-21T00:22:26;101459.34;;;13.71;100.00
72055;BME280;59936;51.490;5.436;2022-08-21T00:22:31;101459.34;;;13.71;100.00
72055;BME280;59936;51.490;5.436;2022-08-21T00:22:39;101453.28;;;13.70;100.00
72055;BME280;59936;51.490;5.436;2022-08-21T00:22:45;101458.53;;;13.70;100.00
72055;BME280;59936;51.490;5.436;2022-08-21T00:22:51;101455.91;;;13.70;100.00
72055;BME280;59936;51.490;5.436;2022-08-21T00:22:57;101453.28;;;13.70;100.00
72055;BME280;59936;51.490;5.436;2022-08-21T00:23:02;101459.34;;;13.71;100.00
72055;BME280;59936;51.490;5.436;2022-08-21T00:23:08;101456.81;;;13.69;100.00
72055;BME280;59936;51.490;5.436;2022-08-21T00:23:15;101458.53;;;13.70;100.00
72055;BME280;59936;51.490;5.436;2022-08-21T00:23:20;101457.66;;;13.70;100.00
72055;BME280;59936;51.490;5.436;2022-08-21T00:23:26;101458.53;;;13.70;100.00
72055;BME280;59936;51.490;5.436;2022-08-21T00:23:33;101455.03;;;13.70;100.00
72055;BME280;59936;51.490;5.436;2022-08-21T00:23:40;101457.66;;;13.70;100.00
72055;BME280;59936;51.490;5.436;2022-08-21T00:23:46;101455.97;;;13.69;100.00
72055;BME280;59936;51.490;5.436;2022-08-21T00:23:52;101466.47;;;13.69;100.00
72055;BME280;59936;51.490;5.436;2022-08-21T00:23:57;101471.72;;;13.69;100.00
72055;BME280;59936;51.490;5.436;2022-08-21T00:24:03;101464.75;;;13.68;100.00
72055;BME280;59936;51.490;5.436;2022-08-21T00:24:09;101469.16;;;13.67;100.00
72055;BME280;59936;51.490;5.436;2022-08-21T00:24:14;101459.53;;;13.68;100.00
72055;BME280;59936;51.490;5.436;2022-08-21T00:24:20;101462.16;;;13.68;100.00
72055;BME280;59936;51.490;5.436;2022-08-21T00:24:27;101462.97;;;13.68;100.00
72055;BME280;59936;51.490;5.436;2022-08-21T00:24:32;101464.75;;;13.68;100.00
72055;BME280;59936;51.490;5.436;2022-08-21T00:24:38;101462.16;;;13.68;100.00
72055;BME280;59936;51.490;5.436;2022-08-21T00:24:44;101455.97;;;13.69;100.00
72055;BME280;59936;51.490;5.436;2022-08-21T00:24:49;101461.22;;;13.69;100.00
72055;BME280;59936;51.490;5.436;2022-08-21T00:24:54;101462.16;;;13.68;100.00
72055;BME280;59936;51.490;5.436;2022-08-21T00:25:00;101460.34;;;13.68;100.00
72055;BME280;59936;51.490;5.436;2022-08-21T00:25:08;101467.38;;;13.68;100.00
72055;BME280;59936;51.490;5.436;2022-08-21T00:25:17;101455.97;;;13.69;100.00
72055;BME280;59936;51.490;5.436;2022-08-21T00:25:23;101465.59;;;13.68;100.00
72055;BME280;59936;51.490;5.436;2022-08-21T00:25:29;101467.38;;;13.68;100.00
72055;BME280;59936;51.490;5.436;2022-08-21T00:25:35;101463.03;;;13.67;100.00
72055;BME280;59936;51.490;5.436;2022-08-21T00:25:43;101462.16;;;13.68;100.00
72055;BME280;59936;51.490;5.436;2022-08-21T00:25:49;101457.78;;;13.67;100.00
72055;BME280;59936;51.490;5.436;2022-08-21T00:25:55;101463.03;;;13.67;100.00
72055;BME280;59936;51.490;5.436;2022-08-21T00:26:00;101457.78;;;13.67;100.00
72055;BME280;59936;51.490;5.436;2022-08-21T00:26:06;101463.91;;;13.67;100.00
72055;BME280;59936;51.490;5.436;2022-08-21T00:26:11;101465.59;;;13.68;100.00
72055;BME280;59936;51.490;5.436;2022-08-21T00:26:17;101465.66;;;13.67;100.00
72055;BME280;59936;51.490;5.436;2022-08-21T00:26:22;101461.28;;;13.67;100.00
72055;BME280;59936;51.490;5.436;2022-08-21T00:26:28;101463.03;;;13.67;100.00
72055;BME280;59936;51.490;5.436;2022-08-21T00:26:33;101453.41;;;13.67;100.00
72055;BME280;59936;51.490;5.436;2022-08-21T00:26:39;101461.28;;;13.67;100.00
72055;BME280;59936;51.490;5.436;2022-08-21T00:26:45;101470.00;;;13.68;100.00
72055;BME280;59936;51.490;5.436;2022-08-21T00:26:52;101459.53;;;13.68;100.00
72055;BME280;59936;51.490;5.436;2022-08-21T00:26:57;101463.03;;;13.67;100.00
72055;BME280;59936;51.490;5.436;2022-08-21T00:27:03;101457.78;;;13.67;100.00
72055;BME280;59936;51.490;5.436;2022-08-21T00:27:09;101463.03;;;13.67;100.00
72055;BME280;59936;51.490;5.436;2022-08-21T00:27:14;101460.41;;;13.67;100.00
72055;BME280;59936;51.490;5.436;2022-08-21T00:27:20;101464.84;;;13.66;100.00
72055;BME280;59936;51.490;5.436;2022-08-21T00:27:25;101459.59;;;13.66;100.00
72055;BME280;59936;51.490;5.436;2022-08-21T00:27:30;101457.78;;;13.67;100.00
72055;BME280;59936;51.490;5.436;2022-08-21T00:27:36;101464.75;;;13.68;100.00
72055;BME280;59936;51.490;5.436;2022-08-21T00:27:42;101463.03;;;13.67;100.00
72055;BME280;59936;51.490;5.436;2022-08-21T00:27:48;101463.03;;;13.67;100.00
72055;BME280;59936;51.490;5.436;2022-08-21T00:27:54;101464.75;;;13.68;100.00
72055;BME280;59936;51.490;5.436;2022-08-21T00:28:01;101464.75;;;13.68;100.00
72055;BME280;59936;51.490;5.436;2022-08-21T00:28:07;101464.75;;;13.68;100.00
72055;BME280;59936;51.490;5.436;2022-08-21T00:28:13;101461.22;;;13.69;100.00
72055;BME280;59936;51.490;5.436;2022-08-21T00:28:18;101470.00;;;13.68;100.00
72055;BME280;59936;51.490;5.436;2022-08-21T00:28:24;101465.59;;;13.68;100.00
72055;BME280;59936;51.490;5.436;2022-08-21T00:28:29;101465.59;;;13.68;100.00
72055;BME280;59936;51.490;5.436;2022-08-21T00:28:35;101464.75;;;13.68;100.00
72055;BME280;59936;51.490;5.436;2022-08-21T00:28:41;101464.75;;;13.68;100.00
72055;BME280;59936;51.490;5.436;2022-08-21T00:28:46;101464.75;;;13.68;100.00
72055;BME280;59936;51.490;5.436;2022-08-21T00:28:53;101463.91;;;13.67;100.00
72055;BME280;59936;51.490;5.436;2022-08-21T00:28:59;101460.41;;;13.67;100.00
72055;BME280;59936;51.490;5.436;2022-08-21T00:29:04;101458.66;;;13.67;100.00
72055;BME280;59936;51.490;5.436;2022-08-21T00:29:09;101457.78;;;13.67;100.00
72055;BME280;59936;51.490;5.436;2022-08-21T00:29:15;101459.53;;;13.68;100.00
72055;BME280;59936;51.490;5.436;2022-08-21T00:29:21;101469.16;;;13.67;100.00
72055;BME280;59936;51.490;5.436;2022-08-21T00:29:26;101463.03;;;13.67;100.00
72055;BME280;59936;51.490;5.436;2022-08-21T00:29:31;101469.16;;;13.67;100.00
72055;BME280;59936;51.490;5.436;2022-08-21T00:29:37;101463.97;;;13.65;100.00
72055;BME280;59936;51.490;5.436;2022-08-21T00:29:42;101461.34;;;13.65;100.00
72055;BME280;59936;51.490;5.436;2022-08-21T00:29:47;101465.66;;;13.67;100.00
72055;BME280;59936;51.490;5.436;2022-08-21T00:29:53;101467.47;;;13.66;100.00
72055;BME280;59936;51.490;5.436;2022-08-21T00:29:58;101462.22;;;13.66;100.00
72055;BME280;59936;51.490;5.436;2022-08-21T00:30:06;101457.78;;;13.67;100.00
72055;BME280;59936;51.490;5.436;2022-08-21T00:30:14;101468.28;;;13.67;100.00
72055;BME280;59936;51.490;5.436;2022-08-21T00:30:22;101463.03;;;13.67;100.00
72055;BME280;59936;51.490;5.436;2022-08-21T00:30:31;101471.84;;;13.65;100.00
72055;BME280;59936;51.490;5.436;2022-08-21T00:30:38;101463.97;;;13.65;100.00
72055;BME280;59936;51.490;5.436;2022-08-21T00:30:44;101459.66;;;13.64;100.00
72055;BME280;59936;51.490;5.436;2022-08-21T00:30:49;101459.66;;;13.64;100.00
72055;BME280;59936;51.490;5.436;2022-08-21T00:30:56;101464.91;;;13.64;100.00
72055;BME280;59936;51.490;5.436;2022-08-21T00:31:02;101464.03;;;13.64;100.00
72055;BME280;59936;51.490;5.436;2022-08-21T00:31:10;101467.53;;;13.64;100.00
72055;BME280;59936;51.490;5.436;2022-08-21T00:31:17;101462.34;;;13.63;100.00
72055;BME280;59936;51.490;5.436;2022-08-21T00:31:23;101463.22;;;13.63;100.00
72055;BME280;59936;51.490;5.436;2022-08-21T00:31:28;101463.22;;;13.63;100.00
72055;BME280;59936;51.490;5.436;2022-08-21T00:31:33;101459.66;;;13.64;100.00
72055;BME280;59936;51.490;5.436;2022-08-21T00:31:40;101464.03;;;13.64;100.00
72055;BME280;59936;51.490;5.436;2022-08-21T00:31:46;101457.97;;;13.63;100.00
72055;BME280;59936;51.490;5.436;2022-08-21T00:31:52;101460.47;;;13.65;100.00
72055;BME280;59936;51.490;5.436;2022-08-21T00:31:57;101459.66;;;13.64;100.00
72055;BME280;59936;51.490;5.436;2022-08-21T00:32:03;101460.47;;;13.65;100.00
72055;BME280;59936;51.490;5.436;2022-08-21T00:32:09;101464.84;;;13.66;100.00
72055;BME280;59936;51.490;5.436;2022-08-21T00:32:20;101456.09;;;13.65;100.00
72055;BME280;59936;51.490;5.436;2022-08-21T00:32:27;101456.09;;;13.65;100.00
72055;BME280;59936;51.490;5.436;2022-08-21T00:32:36;101463.03;;;13.67;100.00
72055;BME280;59936;51.490;5.436;2022-08-21T00:32:44;101463.03;;;13.67;100.00
72055;BME280;59936;51.490;5.436;2022-08-21T00:32:51;101466.53;;;13.67;100.00
72055;BME280;59936;51.490;5.436;2022-08-21T00:32:58;101464.75;;;13.68;100.00
72055;BME280;59936;51.490;5.436;2022-08-21T00:33:05;101459.53;;;13.68;100.00
72055;BME280;59936;51.490;5.436;2022-08-21T00:33:12;101454.28;;;13.68;100.00
72055;BME280;59936;51.490;5.436;2022-08-21T00:33:18;101455.09;;;13.68;100.00